Time;durP1;ratioP1;P1;durP2;ratioP2;P2;SDS_P1;SDS_P2;PMS_P1;PMS_P2;Temp;Humidity;BMP_temperature;BMP_pressure;BME280_temperature;BME280_humidity;BME280_pressure;Samples;Min_cycle;Max_cycle;Signal;HPM_P1;HPM_P2
2022/07/15 00:00:18;;;;;;;3.20;2.80;;;26.50;35.70;;;;;;5033618;28;20943;-45
2022/07/15 00:02:44;;;;;;;5.20;3.00;;;26.50;35.80;;;;;;5032765;28;20197;-45
2022/07/15 00:05:10;;;;;;;3.53;3.07;;;26.40;35.70;;;;;;5033679;28;20431;-45
2022/07/15 00:07:36;;;;;;;3.03;2.77;;;26.40;36.10;;;;;;5033099;28;20196;-44
2022/07/15 00:10:15;;;;;;;4.23;2.87;;;26.40;36.40;;;;;;5033394;28;20286;-45
2022/07/15 00:12:51;;;;;;;3.53;3.20;;;26.30;36.70;;;;;;5032947;28;20466;-45
2022/07/15 00:15:19;;;;;;;2.87;2.67;;;26.20;36.90;;;;;;5033827;28;20521;-45
2022/07/15 00:17:45;;;;;;;3.23;2.93;;;26.20;37.00;;;;;;5030947;28;20436;-46
2022/07/15 00:20:12;;;;;;;6.70;3.50;;;26.10;37.10;;;;;;5033348;28;20981;-44
2022/07/15 00:22:39;;;;;;;3.13;2.83;;;26.10;37.20;;;;;;5032903;28;20626;-45
2022/07/15 00:25:05;;;;;;;6.23;3.17;;;26.00;37.30;;;;;;5033245;28;20523;-44
2022/07/15 00:27:31;;;;;;;2.83;2.63;;;25.90;37.70;;;;;;5032105;28;20527;-44
2022/07/15 00:29:56;;;;;;;6.33;2.80;;;25.90;37.00;;;;;;5033139;28;20282;-44
2022/07/15 00:32:22;;;;;;;3.70;3.40;;;25.80;37.00;;;;;;5032328;28;20199;-45
2022/07/15 00:34:50;;;;;;;3.50;2.67;;;25.80;37.00;;;;;;5033085;28;20285;-45
2022/07/15 00:37:16;;;;;;;6.57;2.97;;;25.80;37.10;;;;;;5032040;28;20460;-45
2022/07/15 00:39:43;;;;;;;4.17;3.40;;;25.80;38.00;;;;;;5032827;28;20426;-45
2022/07/15 00:42:11;;;;;;;5.83;3.67;;;25.80;39.90;;;;;;5032722;28;20193;-46
2022/07/15 00:44:37;;;;;;;3.83;3.50;;;25.70;40.60;;;;;;5025335;28;20437;-45
2022/07/15 00:47:04;;;;;;;3.40;3.10;;;25.70;40.80;;;;;;5031467;28;20416;-45
2022/07/15 00:49:29;;;;;;;3.93;3.53;;;25.60;40.90;;;;;;5032236;28;20912;-45
2022/07/15 00:51:57;;;;;;;3.50;3.20;;;25.60;41.00;;;;;;5032627;28;20424;-44
2022/07/15 00:54:25;;;;;;;3.43;3.10;;;25.50;41.00;;;;;;5032221;28;20250;-45
2022/07/15 00:56:57;;;;;;;3.67;3.37;;;25.50;40.80;;;;;;5032923;28;20935;-45
2022/07/15 00:59:31;;;;;;;5.93;3.20;;;25.50;40.50;;;;;;5031381;28;20412;-45
2022/07/15 01:01:57;;;;;;;3.43;2.93;;;25.50;40.70;;;;;;5032665;28;20420;-45
2022/07/15 01:04:24;;;;;;;7.17;3.73;;;25.40;41.40;;;;;;5031789;28;20439;-44
2022/07/15 01:06:49;;;;;;;6.43;3.87;;;25.30;41.60;;;;;;5032439;28;20420;-45
2022/07/15 01:09:15;;;;;;;4.40;2.80;;;25.20;41.30;;;;;;5030020;28;20528;-45
2022/07/15 01:11:41;;;;;;;7.43;3.20;;;25.20;41.20;;;;;;5032064;28;20239;-44
2022/07/15 01:14:08;;;;;;;4.53;3.13;;;25.20;41.20;;;;;;5031967;28;20355;-44
2022/07/15 01:16:33;;;;;;;3.70;2.30;;;25.00;41.50;;;;;;5032461;28;20216;-45
2022/07/15 01:18:59;;;;;;;2.90;2.63;;;25.00;41.20;;;;;;5031410;28;20978;-44
2022/07/15 01:21:25;;;;;;;4.03;3.30;;;24.90;41.20;;;;;;5032416;28;20683;-44
2022/07/15 01:23:50;;;;;;;3.43;3.00;;;24.90;41.60;;;;;;5031375;28;20194;-44
2022/07/15 01:26:16;;;;;;;3.97;3.23;;;24.80;41.60;;;;;;5032280;28;20189;-44
2022/07/15 01:28:43;;;;;;;3.43;3.13;;;24.70;41.90;;;;;;5031144;28;20189;-45
2022/07/15 01:31:08;;;;;;;4.20;3.20;;;24.60;42.10;;;;;;5032191;28;20428;-45
2022/07/15 01:33:35;;;;;;;6.00;2.97;;;24.50;42.30;;;;;;5031354;28;20439;-45
2022/07/15 01:36:01;;;;;;;4.53;3.17;;;24.50;42.60;;;;;;5031248;28;20189;-46
2022/07/15 01:38:28;;;;;;;3.57;3.17;;;24.50;42.70;;;;;;5030131;28;20505;-44
2022/07/15 01:40:55;;;;;;;5.73;3.57;;;24.40;42.70;;;;;;5031803;28;20432;-44
2022/07/15 01:43:21;;;;;;;4.53;3.47;;;24.30;42.80;;;;;;5031251;28;20915;-45
2022/07/15 01:45:47;;;;;;;5.40;3.47;;;24.30;42.80;;;;;;5025477;28;20427;-45
2022/07/15 01:50:59;;;;;;;3.27;2.70;;;24.20;42.90;;;;;;5031953;28;20447;-44
2022/07/15 01:53:25;;;;;;;4.73;3.20;;;24.10;43.20;;;;;;5030936;28;20416;-45
2022/07/15 01:55:51;;;;;;;2.73;2.53;;;24.00;43.20;;;;;;5031637;28;20428;-45
2022/07/15 01:58:18;;;;;;;4.40;2.80;;;24.00;43.10;;;;;;5030466;28;20435;-44
2022/07/15 02:00:43;;;;;;;3.57;2.90;;;23.90;43.10;;;;;;5031472;28;20193;-44
2022/07/15 02:03:09;;;;;;;3.93;2.50;;;23.90;43.40;;;;;;5029456;28;21087;-45
2022/07/15 02:05:35;;;;;;;3.17;2.87;;;23.80;43.50;;;;;;5031267;28;20196;-44
2022/07/15 02:08:02;;;;;;;3.63;3.30;;;23.80;43.90;;;;;;5030249;28;20189;-44
2022/07/15 02:10:39;;;;;;;3.60;3.30;;;23.70;43.80;;;;;;5031065;28;20963;-44
2022/07/15 02:13:13;;;;;;;3.83;3.20;;;23.70;43.80;;;;;;5030862;28;20467;-44
2022/07/15 02:15:40;;;;;;;6.33;3.63;;;23.70;43.90;;;;;;5030882;28;20439;-44
2022/07/15 02:18:07;;;;;;;4.30;3.87;;;23.70;43.80;;;;;;5030652;28;20432;-45
2022/07/15 02:20:33;;;;;;;6.23;3.20;;;23.70;43.80;;;;;;5031059;28;20515;-44
2022/07/15 02:23:01;;;;;;;3.27;3.00;;;23.70;43.80;;;;;;5030726;28;20431;-44
2022/07/15 02:25:28;;;;;;;4.10;3.70;;;23.60;43.80;;;;;;5030628;28;20497;-45
2022/07/15 02:27:58;;;;;;;4.10;3.70;;;23.60;43.70;;;;;;5030186;28;20424;-45
2022/07/15 02:30:31;;;;;;;3.53;3.10;;;23.60;43.70;;;;;;5029169;28;20849;-44
2022/07/15 02:32:56;;;;;;;6.80;4.10;;;23.50;43.60;;;;;;5030500;28;20432;-45
2022/07/15 02:35:22;;;;;;;4.20;3.37;;;23.50;43.70;;;;;;5029290;28;20443;-44
2022/07/15 02:37:48;;;;;;;5.33;4.00;;;23.50;43.80;;;;;;5030079;28;20243;-45
2022/07/15 02:40:15;;;;;;;5.93;3.30;;;23.40;44.30;;;;;;5030760;28;20468;-44
2022/07/15 02:42:50;;;;;;;4.43;3.40;;;23.40;43.80;;;;;;5030288;28;20473;-44
2022/07/15 02:45:17;;;;;;;6.47;3.90;;;23.40;43.90;;;;;;5024237;28;20193;-45
2022/07/15 02:47:42;;;;;;;4.97;3.70;;;23.40;44.00;;;;;;5030144;28;20435;-44
2022/07/15 02:50:08;;;;;;;6.70;3.90;;;23.30;44.10;;;;;;5030669;28;20499;-44
2022/07/15 02:52:35;;;;;;;4.63;3.37;;;23.20;44.10;;;;;;5030219;28;20197;-44
2022/07/15 02:55:01;;;;;;;4.73;3.83;;;23.20;44.30;;;;;;5030490;28;20482;-45
2022/07/15 02:57:27;;;;;;;3.30;2.93;;;23.10;44.40;;;;;;5027830;28;20447;-44
2022/07/15 02:59:53;;;;;;;5.17;3.80;;;23.10;44.60;;;;;;5030539;28;20435;-44
2022/07/15 03:02:18;;;;;;;5.23;3.83;;;23.00;44.70;;;;;;5030122;28;20800;-44
2022/07/15 03:04:44;;;;;;;3.30;3.00;;;23.00;44.60;;;;;;5030455;28;20197;-44
2022/07/15 03:07:10;;;;;;;3.10;2.80;;;22.90;44.90;;;;;;5030092;28;20320;-45
2022/07/15 03:09:36;;;;;;;3.60;3.30;;;22.80;45.60;;;;;;5029941;28;20323;-44
2022/07/15 03:12:02;;;;;;;6.97;3.63;;;22.80;45.80;;;;;;5030385;28;20413;-44
2022/07/15 03:14:28;;;;;;;3.60;3.20;;;22.70;46.20;;;;;;5029565;28;20489;-45
2022/07/15 03:16:53;;;;;;;5.10;3.60;;;22.70;45.70;;;;;;5030106;28;20246;-45
2022/07/15 03:19:20;;;;;;;3.60;3.30;;;22.70;45.60;;;;;;5029869;28;20193;-45
2022/07/15 03:21:47;;;;;;;3.87;3.10;;;22.70;46.00;;;;;;5030491;28;20204;-45
2022/07/15 03:24:13;;;;;;;5.07;3.10;;;22.60;45.30;;;;;;5030812;28;20432;-45
2022/07/15 03:26:39;;;;;;;9.73;3.30;;;22.70;45.20;;;;;;5034588;28;20424;-44
2022/07/15 03:29:05;;;;;;;2.73;2.50;;;22.70;45.20;;;;;;5033503;28;20217;-44
2022/07/15 03:31:30;;;;;;;2.40;2.20;;;22.60;45.20;;;;;;5034434;28;20193;-44
2022/07/15 03:33:56;;;;;;;4.03;2.73;;;22.60;45.10;;;;;;5033601;28;20192;-44
2022/07/15 03:36:23;;;;;;;3.70;2.50;;;22.50;45.00;;;;;;5034230;28;20228;-44
2022/07/15 03:38:51;;;;;;;3.77;2.63;;;22.60;45.00;;;;;;5033082;28;20262;-44
2022/07/15 03:41:17;;;;;;;5.07;3.90;;;22.50;45.10;;;;;;5033956;28;20431;-44
2022/07/15 03:43:43;;;;;;;6.40;2.93;;;22.40;45.00;;;;;;5033537;28;20935;-44
2022/07/15 03:46:09;;;;;;;4.43;2.90;;;22.40;45.10;;;;;;5030103;28;20435;-45
2022/07/15 03:48:35;;;;;;;3.10;2.43;;;22.30;45.10;;;;;;5033108;28;20803;-45
2022/07/15 03:51:00;;;;;;;4.60;2.80;;;22.30;45.70;;;;;;5032484;28;20575;-44
2022/07/15 03:53:26;;;;;;;3.13;2.90;;;22.20;45.20;;;;;;5033211;28;20633;-44
2022/07/15 03:55:51;;;;;;;3.10;2.53;;;22.10;45.10;;;;;;5033893;28;20201;-44
2022/07/15 03:58:17;;;;;;;4.00;2.70;;;22.20;45.10;;;;;;5032958;28;20201;-44
2022/07/15 04:00:43;;;;;;;2.70;2.50;;;22.20;45.30;;;;;;5033794;28;20186;-44
2022/07/15 04:03:08;;;;;;;3.33;2.10;;;22.20;45.40;;;;;;5032993;28;20209;-45
2022/07/15 04:05:34;;;;;;;4.53;3.33;;;22.20;45.40;;;;;;5032407;28;20204;-44
2022/07/15 04:08:00;;;;;;;4.80;3.53;;;22.20;45.40;;;;;;5032594;28;20200;-45
2022/07/15 04:10:25;;;;;;;5.40;4.10;;;22.20;45.40;;;;;;5033585;28;20730;-45
2022/07/15 04:12:51;;;;;;;6.47;3.50;;;22.30;45.40;;;;;;5032823;28;20224;-44
2022/07/15 04:15:16;;;;;;;4.17;3.33;;;22.30;45.40;;;;;;5033491;28;20703;-45
2022/07/15 04:17:42;;;;;;;3.60;2.90;;;22.20;45.70;;;;;;5031625;28;20559;-45
2022/07/15 04:20:09;;;;;;;7.13;3.10;;;22.10;45.90;;;;;;5033129;28;20293;-44
2022/07/15 04:22:41;;;;;;;4.37;2.60;;;22.10;46.00;;;;;;5032675;28;21311;-44
2022/07/15 04:25:08;;;;;;;3.80;2.63;;;22.00;45.90;;;;;;5033361;28;20431;-44
2022/07/15 04:27:34;;;;;;;3.40;3.10;;;21.90;46.20;;;;;;5032511;28;20428;-44
2022/07/15 04:30:00;;;;;;;2.90;2.60;;;21.50;47.50;;;;;;5032919;28;20502;-45
2022/07/15 04:32:26;;;;;;;3.60;2.80;;;21.30;47.40;;;;;;5032377;28;20285;-44
2022/07/15 04:34:52;;;;;;;2.73;2.53;;;20.80;48.20;;;;;;5031848;28;20193;-44
2022/07/15 04:37:18;;;;;;;3.57;2.87;;;20.50;49.00;;;;;;5032074;28;20459;-45
2022/07/15 04:39:44;;;;;;;5.53;2.93;;;20.60;48.90;;;;;;5032747;28;20428;-44
2022/07/15 04:42:09;;;;;;;5.40;3.27;;;20.70;48.90;;;;;;5032963;28;20208;-45
2022/07/15 04:44:35;;;;;;;3.00;2.73;;;20.40;49.40;;;;;;5026845;28;20721;-44
2022/07/15 04:47:02;;;;;;;3.83;2.50;;;20.40;49.50;;;;;;5030082;28;20223;-46
2022/07/15 04:52:14;;;;;;;5.07;4.57;;;20.90;48.60;;;;;;5032814;28;20485;-44
2022/07/15 04:54:40;;;;;;;4.37;3.33;;;21.20;48.20;;;;;;5032116;28;20472;-44
2022/07/15 04:57:05;;;;;;;3.13;2.83;;;21.30;47.90;;;;;;5032424;28;20428;-45
2022/07/15 04:59:32;;;;;;;3.80;2.87;;;21.20;47.80;;;;;;5031882;28;20225;-45
2022/07/15 05:01:58;;;;;;;3.30;3.00;;;21.20;47.90;;;;;;5032505;28;20197;-47
2022/07/15 05:04:24;;;;;;;4.73;2.70;;;21.30;47.80;;;;;;5032169;28;20412;-48
2022/07/15 05:06:50;;;;;;;4.67;3.10;;;21.30;48.00;;;;;;5032473;28;20450;-45
2022/07/15 05:09:15;;;;;;;3.40;2.97;;;21.20;48.10;;;;;;5031897;28;20637;-46
2022/07/15 05:11:41;;;;;;;3.43;2.63;;;21.10;48.10;;;;;;5030687;28;20189;-48
2022/07/15 05:14:07;;;;;;;3.40;2.83;;;20.70;48.90;;;;;;5031812;28;20215;-47
2022/07/15 05:16:32;;;;;;;14.27;12.87;;;20.70;49.10;;;;;;5032174;28;20208;-46
2022/07/15 05:18:58;;;;;;;12.80;9.20;;;20.60;49.40;;;;;;5031661;28;20197;-47
2022/07/15 05:21:24;;;;;;;4.60;4.20;;;20.60;49.10;;;;;;5032302;28;20193;-46
2022/07/15 05:23:49;;;;;;;4.40;3.90;;;20.90;48.70;;;;;;5031526;28;20204;-44
2022/07/15 05:26:15;;;;;;;5.10;3.00;;;21.20;48.30;;;;;;5032210;28;20193;-48
2022/07/15 05:28:41;;;;;;;4.57;3.07;;;21.40;48.50;;;;;;5031073;28;20223;-46
2022/07/15 05:31:07;;;;;;;4.47;3.20;;;21.60;47.60;;;;;;5031978;28;20194;-44
2022/07/15 05:33:32;;;;;;;5.67;3.20;;;21.60;47.60;;;;;;5031622;28;20228;-46
2022/07/15 05:35:58;;;;;;;4.40;3.00;;;21.60;47.60;;;;;;5031842;28;20432;-47
2022/07/15 05:38:25;;;;;;;5.90;3.10;;;21.70;47.90;;;;;;5030312;28;20189;-46
2022/07/15 05:40:50;;;;;;;3.30;3.00;;;21.80;47.80;;;;;;5031045;28;20424;-47
2022/07/15 05:43:16;;;;;;;3.17;2.50;;;22.00;47.40;;;;;;5031189;28;20431;-48
2022/07/15 05:45:42;;;;;;;7.60;3.00;;;22.10;47.10;;;;;;5024963;28;20197;-46
2022/07/15 05:48:08;;;;;;;4.27;3.03;;;22.30;46.90;;;;;;5030860;28;20263;-47
2022/07/15 05:50:33;;;;;;;3.20;2.60;;;22.40;46.80;;;;;;5031668;28;20221;-47
2022/07/15 05:52:59;;;;;;;3.00;2.70;;;22.60;46.40;;;;;;5031022;28;20435;-47
2022/07/15 05:55:25;;;;;;;9.70;3.10;;;22.70;46.20;;;;;;5031541;28;20228;-45
2022/07/15 05:57:50;;;;;;;3.53;2.53;;;22.70;46.20;;;;;;5030710;28;20565;-47
2022/07/15 06:00:16;;;;;;;6.47;3.20;;;22.80;46.20;;;;;;5031457;28;20586;-44
2022/07/15 06:02:42;;;;;;;5.23;3.10;;;23.00;45.70;;;;;;5031060;28;20268;-46
2022/07/15 06:05:09;;;;;;;3.87;3.00;;;23.20;45.30;;;;;;5031360;28;20198;-48
2022/07/15 06:07:35;;;;;;;4.07;3.13;;;23.30;45.20;;;;;;5028790;28;20470;-45
2022/07/15 06:10:01;;;;;;;3.70;3.07;;;23.40;44.90;;;;;;5031186;28;20575;-47
2022/07/15 06:12:27;;;;;;;3.43;2.90;;;23.50;44.60;;;;;;5030601;28;20428;-47
2022/07/15 06:14:53;;;;;;;4.10;3.33;;;23.70;44.30;;;;;;5031155;28;20937;-45
2022/07/15 06:17:18;;;;;;;11.83;2.87;;;23.90;44.20;;;;;;5030005;28;20224;-45
2022/07/15 06:19:44;;;;;;;3.77;2.67;;;24.00;44.10;;;;;;5031141;28;20548;-48
2022/07/15 06:22:10;;;;;;;3.00;2.20;;;24.10;43.60;;;;;;5031041;28;20205;-46
2022/07/15 06:24:35;;;;;;;3.97;2.60;;;24.30;43.40;;;;;;5030525;28;20197;-45
2022/07/15 06:27:01;;;;;;;2.60;2.30;;;24.50;42.60;;;;;;5030598;28;20620;-46
2022/07/15 06:29:26;;;;;;;3.97;2.40;;;24.60;42.00;;;;;;5030572;28;20685;-47
2022/07/15 06:31:52;;;;;;;4.73;2.90;;;24.80;42.10;;;;;;5030817;28;20546;-45
2022/07/15 06:34:17;;;;;;;4.80;2.37;;;24.90;42.20;;;;;;5028771;28;20196;-45
2022/07/15 06:36:43;;;;;;;3.20;2.20;;;25.00;41.90;;;;;;5030310;28;20237;-46
2022/07/15 06:39:09;;;;;;;2.53;2.13;;;25.20;41.10;;;;;;5030566;28;20616;-45
2022/07/15 06:41:34;;;;;;;5.00;2.70;;;25.30;40.90;;;;;;5030886;28;20189;-47
2022/07/15 06:44:01;;;;;;;3.67;2.57;;;25.40;40.70;;;;;;5030039;28;20196;-48
2022/07/15 06:46:27;;;;;;;3.23;2.47;;;25.50;40.50;;;;;;5024267;28;20189;-48
2022/07/15 06:48:53;;;;;;;4.60;2.40;;;25.70;40.00;;;;;;5030296;28;20436;-48
2022/07/15 06:51:18;;;;;;;2.50;2.30;;;25.70;39.30;;;;;;5030843;28;20435;-48
2022/07/15 06:53:44;;;;;;;5.03;2.40;;;25.60;39.60;;;;;;5030023;28;20204;-48
2022/07/15 06:56:10;;;;;;;2.47;2.20;;;25.70;40.30;;;;;;5030621;28;20276;-46
2022/07/15 06:58:35;;;;;;;10.37;3.40;;;25.90;39.60;;;;;;5029071;28;20201;-48
2022/07/15 07:01:01;;;;;;;5.53;3.27;;;26.10;39.30;;;;;;5028925;28;20568;-48
2022/07/15 07:03:27;;;;;;;3.30;2.53;;;26.30;38.80;;;;;;5029816;28;20279;-45
2022/07/15 07:05:52;;;;;;;3.80;2.90;;;26.50;39.00;;;;;;5030476;28;20644;-46
2022/07/15 07:08:18;;;;;;;3.83;2.70;;;26.70;38.90;;;;;;5029477;28;20225;-44
2022/07/15 07:10:44;;;;;;;4.03;2.20;;;26.80;38.70;;;;;;5030354;28;20217;-46
2022/07/15 07:13:09;;;;;;;5.80;2.40;;;26.90;38.40;;;;;;5029900;28;20288;-46
2022/07/15 07:15:38;;;;;;;2.27;2.03;;;27.10;37.90;;;;;;5030495;28;20193;-45
2022/07/15 07:18:03;;;;;;;2.80;2.13;;;27.30;37.50;;;;;;5029497;28;20223;-47
2022/07/15 07:20:29;;;;;;;3.10;1.87;;;27.60;37.20;;;;;;5030152;28;20487;-46
2022/07/15 07:22:57;;;;;;;2.70;2.50;;;27.70;36.10;;;;;;5029566;28;20603;-47
2022/07/15 07:25:23;;;;;;;4.90;2.37;;;27.80;34.70;;;;;;5030310;28;20458;-45
2022/07/15 07:27:48;;;;;;;5.57;1.97;;;27.80;34.10;;;;;;5027965;28;20428;-46
2022/07/15 07:30:14;;;;;;;2.50;2.30;;;27.90;33.90;;;;;;5030360;28;20475;-48
2022/07/15 07:32:40;;;;;;;2.67;2.03;;;28.10;34.80;;;;;;5029477;28;20197;-49
2022/07/15 07:35:07;;;;;;;2.30;2.03;;;28.30;34.30;;;;;;5030574;28;20201;-49
2022/07/15 07:37:37;;;;;;;4.87;2.40;;;28.50;33.20;;;;;;5029051;28;20236;-48
2022/07/15 07:40:07;;;;;;;3.70;2.03;;;28.60;32.70;;;;;;5030049;28;20522;-48
2022/07/15 07:42:34;;;;;;;3.37;2.40;;;28.80;32.10;;;;;;5029457;28;20519;-45
2022/07/15 07:45:01;;;;;;;2.40;1.80;;;28.70;31.80;;;;;;5023892;28;20440;-49
2022/07/15 07:47:27;;;;;;;3.00;2.27;;;28.70;31.80;;;;;;5029259;28;20447;-48
2022/07/15 07:49:53;;;;;;;5.73;2.20;;;28.90;31.80;;;;;;5029984;28;20987;-47
2022/07/15 07:52:18;;;;;;;2.50;2.30;;;29.00;31.40;;;;;;5029760;28;20188;-48
2022/07/15 07:54:44;;;;;;;4.20;1.80;;;29.20;31.30;;;;;;5028306;28;20424;-48
2022/07/15 07:57:10;;;;;;;3.57;2.47;;;29.10;30.60;;;;;;5029955;28;20193;-46
2022/07/15 07:59:36;;;;;;;2.53;2.00;;;29.20;29.70;;;;;;5029426;28;20244;-47
2022/07/15 08:02:03;;;;;;;4.40;2.63;;;29.30;29.90;;;;;;5030046;28;20432;-48
2022/07/15 08:04:30;;;;;;;6.93;1.67;;;29.40;30.00;;;;;;5029310;28;20243;-46
2022/07/15 08:06:56;;;;;;;2.87;2.63;;;29.30;30.40;;;;;;5029782;28;20560;-49
2022/07/15 08:09:22;;;;;;;3.07;2.20;;;29.20;31.50;;;;;;5030256;28;20534;-45
2022/07/15 08:11:47;;;;;;;3.73;2.23;;;29.50;31.10;;;;;;5033675;28;20428;-49
2022/07/15 08:14:13;;;;;;;3.10;2.00;;;29.70;30.10;;;;;;5032942;28;20193;-49
2022/07/15 08:16:42;;;;;;;3.97;2.47;;;29.90;29.90;;;;;;5033304;28;20594;-46
2022/07/15 08:19:08;;;;;;;2.53;2.20;;;30.10;29.70;;;;;;5033035;28;20653;-45
2022/07/15 08:21:33;;;;;;;5.70;2.20;;;30.30;29.90;;;;;;5031749;28;20420;-46
2022/07/15 08:23:59;;;;;;;3.43;2.30;;;30.40;29.20;;;;;;5032708;28;20505;-45
2022/07/15 08:26:24;;;;;;;7.17;2.50;;;30.50;29.40;;;;;;5032918;28;20716;-45
2022/07/15 08:28:51;;;;;;;2.00;1.73;;;30.60;29.50;;;;;;5032606;28;20244;-45
2022/07/15 08:31:18;;;;;;;1.67;1.57;;;30.80;28.50;;;;;;5033135;28;20197;-45
2022/07/15 08:33:45;;;;;;;4.60;3.10;;;30.90;28.60;;;;;;5032612;28;20432;-49
2022/07/15 08:36:11;;;;;;;5.53;2.40;;;31.00;28.20;;;;;;5032853;28;20428;-48
2022/07/15 08:38:37;;;;;;;7.00;2.20;;;30.90;27.80;;;;;;5032305;28;20432;-50
2022/07/15 08:41:03;;;;;;;4.93;2.30;;;31.00;28.00;;;;;;5033251;28;20459;-48
2022/07/15 08:43:29;;;;;;;2.73;1.80;;;30.90;27.70;;;;;;5032129;28;20463;-47
2022/07/15 08:45:55;;;;;;;4.10;2.07;;;30.90;27.80;;;;;;5026442;28;20193;-45
2022/07/15 08:48:26;;;;;;;2.40;2.00;;;30.90;28.10;;;;;;5030357;28;20200;-49
2022/07/15 08:50:53;;;;;;;1.93;1.80;;;31.10;27.70;;;;;;5032974;28;20518;-48
2022/07/15 08:53:18;;;;;;;2.07;1.87;;;31.40;27.50;;;;;;5032136;28;20479;-49
2022/07/15 08:55:46;;;;;;;3.17;1.97;;;31.70;27.00;;;;;;5032873;28;21122;-48
2022/07/15 08:58:11;;;;;;;2.20;2.00;;;31.90;26.70;;;;;;5031812;28;20244;-49
2022/07/15 09:00:38;;;;;;;2.20;2.00;;;32.00;27.20;;;;;;5032817;28;20428;-49
2022/07/15 09:03:05;;;;;;;2.30;2.10;;;32.20;26.10;;;;;;5031974;28;20193;-49
2022/07/15 09:05:33;;;;;;;4.10;2.17;;;32.20;26.00;;;;;;5032736;28;20486;-49
2022/07/15 09:08:00;;;;;;;2.80;2.23;;;32.30;26.40;;;;;;5031735;28;20489;-50
2022/07/15 09:10:43;;;;;;;3.40;2.20;;;32.40;25.80;;;;;;5032233;28;20518;-45
2022/07/15 09:13:28;;;;;;;2.17;1.80;;;32.40;25.80;;;;;;5031888;28;20814;-46
2022/07/15 09:15:55;;;;;;;3.30;2.00;;;32.60;25.90;;;;;;5030815;28;20424;-45
2022/07/15 09:18:24;;;;;;;2.00;1.90;;;32.50;25.40;;;;;;5031143;28;20440;-45
2022/07/15 09:20:50;;;;;;;3.70;2.50;;;32.40;25.70;;;;;;5031850;28;21151;-45
2022/07/15 09:23:23;;;;;;;2.47;2.03;;;32.20;26.00;;;;;;5031746;28;20420;-46
2022/07/15 09:25:50;;;;;;;4.63;2.20;;;32.20;25.90;;;;;;5032245;28;20502;-46
2022/07/15 09:28:16;;;;;;;2.00;1.90;;;32.20;26.30;;;;;;5030980;28;20439;-45
2022/07/15 09:33:40;;;;;;;5.07;2.20;;;32.70;26.00;;;;;;5031760;28;20438;-45
2022/07/15 09:36:21;;;;;;;4.33;2.20;;;32.80;26.90;;;;;;5031885;28;20961;-45
2022/07/15 09:38:48;;;;;;;2.13;1.80;;;33.10;26.60;;;;;;5031392;28;20454;-45
2022/07/15 09:41:33;;;;;;;2.60;2.07;;;33.00;26.80;;;;;;5030311;28;20474;-47
2022/07/15 09:44:05;;;;;;;3.20;1.80;;;33.20;26.00;;;;;;5031521;28;20440;-50
2022/07/15 09:46:47;;;;;;;4.07;2.80;;;33.40;26.00;;;;;;5025481;28;20514;-46
2022/07/15 09:49:32;;;;;;;2.60;2.30;;;33.60;25.10;;;;;;5031258;28;21064;-46
2022/07/15 09:52:01;;;;;;;2.33;2.13;;;33.60;25.00;;;;;;5031649;28;20519;-45
2022/07/15 09:54:32;;;;;;;2.83;2.33;;;33.60;25.60;;;;;;5031248;28;20455;-49
2022/07/15 09:57:03;;;;;;;4.40;2.20;;;33.70;26.00;;;;;;5031240;28;20424;-49
2022/07/15 09:59:30;;;;;;;2.77;2.00;;;33.90;25.70;;;;;;5030725;28;20863;-49
2022/07/15 10:01:57;;;;;;;2.87;2.50;;;33.90;25.10;;;;;;5031598;28;20430;-49
2022/07/15 10:04:25;;;;;;;3.13;2.77;;;34.10;25.80;;;;;;5030820;28;20448;-49
2022/07/15 10:06:53;;;;;;;3.40;2.50;;;34.10;24.70;;;;;;5030952;28;20525;-47
2022/07/15 10:09:23;;;;;;;4.50;2.93;;;34.20;25.10;;;;;;5029156;28;20485;-46
2022/07/15 10:11:52;;;;;;;2.30;2.10;;;34.40;26.10;;;;;;5031492;28;20432;-47
2022/07/15 10:14:46;;;;;;;3.03;2.57;;;34.40;24.00;;;;;;5030765;28;20452;-46
2022/07/15 10:17:42;;;;;;;2.60;2.30;;;34.30;23.90;;;;;;5030998;28;20524;-48
2022/07/15 10:20:27;;;;;;;3.10;2.40;;;34.40;24.80;;;;;;5031476;28;20473;-49
2022/07/15 10:23:12;;;;;;;2.47;2.27;;;34.40;24.40;;;;;;5030437;28;20427;-49
2022/07/15 10:26:25;;;;;;;3.07;2.03;;;34.40;24.60;;;;;;5030966;28;20841;-46
2022/07/15 10:28:55;;;;;;;3.60;2.00;;;34.40;25.10;;;;;;5030542;28;20444;-46
2022/07/15 10:31:25;;;;;;;3.47;2.30;;;34.40;24.00;;;;;;5031089;28;20462;-48
2022/07/15 10:34:03;;;;;;;6.87;2.23;;;34.50;24.30;;;;;;5029439;28;20436;-47
2022/07/15 10:36:47;;;;;;;3.93;2.30;;;34.80;25.10;;;;;;5028799;28;20490;-47
2022/07/15 10:39:14;;;;;;;3.67;2.07;;;35.00;24.50;;;;;;5018474;28;20431;-49
2022/07/15 10:41:53;;;;;;;3.40;2.87;;;35.00;24.40;;;;;;5031006;28;20435;-49
2022/07/15 10:44:19;;;;;;;3.03;2.60;;;35.20;24.00;;;;;;5027740;28;20530;-50
2022/07/15 10:46:45;;;;;;;3.23;2.00;;;35.30;23.40;;;;;;5026988;28;20502;-45
2022/07/15 10:49:10;;;;;;;5.20;2.63;;;35.30;23.50;;;;;;5030033;28;20966;-47
2022/07/15 10:51:36;;;;;;;3.20;2.77;;;35.40;24.30;;;;;;5030850;28;20730;-50
2022/07/15 10:54:04;;;;;;;5.10;2.30;;;35.40;23.30;;;;;;5030449;28;20304;-50
2022/07/15 10:56:30;;;;;;;2.73;2.50;;;35.40;24.00;;;;;;5030188;28;20196;-46
2022/07/15 10:59:08;;;;;;;4.90;2.67;;;35.40;23.50;;;;;;5029884;28;20416;-47
2022/07/15 11:01:34;;;;;;;4.60;2.37;;;35.60;24.60;;;;;;5030321;28;20435;-50
2022/07/15 11:04:20;;;;;;;2.70;2.50;;;35.70;23.90;;;;;;5028684;28;20427;-44
2022/07/15 11:07:07;;;;;;;2.70;2.47;;;35.50;23.20;;;;;;5030136;28;20575;-44
2022/07/15 11:10:02;;;;;;;3.20;2.53;;;35.30;23.20;;;;;;5029427;28;20478;-47
2022/07/15 11:12:30;;;;;;;5.23;2.67;;;35.40;23.80;;;;;;5029048;28;20451;-44
2022/07/15 11:15:00;;;;;;;4.30;2.63;;;35.60;23.90;;;;;;5030383;28;20424;-43
2022/07/15 11:17:29;;;;;;;3.13;2.87;;;35.70;23.20;;;;;;5029374;28;20826;-46
2022/07/15 11:20:00;;;;;;;4.30;2.20;;;35.70;23.10;;;;;;5030313;28;21178;-45
2022/07/15 11:22:28;;;;;;;2.87;2.30;;;35.80;23.60;;;;;;5029870;28;20459;-44
2022/07/15 11:24:55;;;;;;;4.10;2.37;;;36.00;23.90;;;;;;5030226;28;20531;-46
2022/07/15 11:27:23;;;;;;;3.10;2.50;;;36.10;23.70;;;;;;5029356;28;20435;-43
2022/07/15 11:30:02;;;;;;;3.83;2.30;;;36.40;23.80;;;;;;5028487;28;20479;-44
2022/07/15 11:32:33;;;;;;;3.67;2.50;;;36.50;23.30;;;;;;5029894;28;20774;-44
2022/07/15 11:35:02;;;;;;;2.83;2.50;;;36.60;23.70;;;;;;5030452;28;20866;-45
2022/07/15 11:37:30;;;;;;;2.90;2.33;;;36.70;23.40;;;;;;5029159;28;20566;-44
2022/07/15 11:45:46;;;;;;;5.90;2.77;;;36.90;22.70;;;;;;5028962;28;20431;-44
2022/07/15 11:48:13;;;;;;;3.07;2.20;;;36.90;22.60;;;;;;5033255;28;20423;-43
2022/07/15 11:50:57;;;;;;;4.93;2.70;;;37.00;21.90;;;;;;5034142;28;20235;-44
2022/07/15 11:53:24;;;;;;;3.87;2.33;;;36.40;22.20;;;;;;5033285;28;20416;-44
2022/07/15 11:55:59;;;;;;;4.90;2.80;;;36.40;23.30;;;;;;5032427;28;21321;-43
2022/07/15 11:58:36;;;;;;;3.87;2.67;;;36.40;22.50;;;;;;5033613;28;20510;-44
2022/07/15 12:01:08;;;;;;;2.90;2.60;;;36.60;22.60;;;;;;5033794;28;20470;-44
2022/07/15 12:03:42;;;;;;;8.07;2.87;;;36.60;22.80;;;;;;5020676;28;20435;-44
2022/07/15 12:06:20;;;;;;;2.80;2.50;;;36.80;22.80;;;;;;5033371;28;20443;-43
2022/07/15 12:08:48;;;;;;;3.80;2.30;;;36.70;24.20;;;;;;5033061;28;20820;-44
2022/07/15 12:11:32;;;;;;;2.80;2.57;;;36.60;23.10;;;;;;5033542;28;20491;-43
2022/07/15 12:14:11;;;;;;;2.83;2.50;;;36.70;23.20;;;;;;5032966;28;20459;-43
2022/07/15 12:16:43;;;;;;;3.63;2.73;;;36.80;22.90;;;;;;5033364;28;20442;-43
2022/07/15 12:19:28;;;;;;;2.60;2.40;;;36.90;22.30;;;;;;5033072;28;20530;-44
2022/07/15 12:21:57;;;;;;;2.90;2.70;;;36.90;22.50;;;;;;5033175;28;20466;-43
2022/07/15 12:24:25;;;;;;;3.30;2.70;;;37.10;22.10;;;;;;5030956;28;20841;-44
2022/07/15 12:26:52;;;;;;;4.17;3.07;;;37.10;22.20;;;;;;5032946;28;20435;-43
2022/07/15 12:29:20;;;;;;;3.83;2.93;;;37.00;23.30;;;;;;5032547;28;20494;-44
2022/07/15 12:31:57;;;;;;;5.53;3.10;;;37.20;23.00;;;;;;5033329;28;20428;-44
2022/07/15 12:34:53;;;;;;;2.47;2.27;;;37.30;22.40;;;;;;5032336;28;20458;-45
2022/07/15 12:37:48;;;;;;;4.40;2.60;;;37.40;22.80;;;;;;5032118;28;20459;-44
2022/07/15 12:40:23;;;;;;;3.10;2.53;;;37.40;23.00;;;;;;5033052;28;20462;-44
2022/07/15 12:42:51;;;;;;;3.03;2.70;;;37.40;22.70;;;;;;5032431;28;20427;-44
2022/07/15 12:45:34;;;;;;;3.60;2.70;;;37.40;22.70;;;;;;5026192;28;20930;-45
2022/07/15 12:48:08;;;;;;;2.93;2.57;;;37.50;22.10;;;;;;5032192;28;20436;-44
2022/07/15 12:50:41;;;;;;;3.40;3.00;;;37.40;21.90;;;;;;5031186;28;20501;-47
2022/07/15 12:53:07;;;;;;;4.50;2.63;;;36.70;21.70;;;;;;5032362;28;20431;-45
2022/07/15 12:55:41;;;;;;;3.97;2.40;;;36.40;22.40;;;;;;5031777;28;20919;-44
2022/07/15 12:58:09;;;;;;;5.50;3.20;;;36.50;22.90;;;;;;5031964;28;21038;-45
2022/07/15 13:00:36;;;;;;;3.60;2.50;;;36.70;22.80;;;;;;5032719;28;20428;-48
2022/07/15 13:03:05;;;;;;;3.17;2.73;;;37.00;22.10;;;;;;5032274;28;20424;-44
2022/07/15 13:05:39;;;;;;;4.00;2.67;;;37.00;22.30;;;;;;5032611;28;20432;-46